Time;durP1;ratioP1;P1;durP2;ratioP2;P2;SDS_P1;SDS_P2;PMS_P1;PMS_P2;Temp;Humidity;BMP_temperature;BMP_pressure;BME280_temperature;BME280_humidity;BME280_pressure;Samples;Min_cycle;Max_cycle;Signal;HPM_P1;HPM_P2
2021/07/01 00:00:55;;;;;;;6.22;3.75;;;20.90;77.60;;;;;;5074794;28;20021;-73
2021/07/01 00:03:21;;;;;;;6.60;3.65;;;21.00;77.30;;;;;;5074161;28;20028;-73
2021/07/01 00:05:47;;;;;;;6.50;4.00;;;20.90;77.90;;;;;;5056916;28;20035;-73
2021/07/01 00:08:12;;;;;;;7.38;4.15;;;21.00;77.90;;;;;;5073330;28;20043;-73
2021/07/01 00:10:38;;;;;;;7.90;3.97;;;20.90;77.80;;;;;;5057062;28;20012;-73
2021/07/01 00:13:04;;;;;;;5.80;3.63;;;20.90;78.10;;;;;;5074239;28;20016;-73
2021/07/01 00:15:31;;;;;;;6.90;3.40;;;20.90;77.80;;;;;;5074415;28;20091;-73
2021/07/01 00:17:58;;;;;;;7.53;3.85;;;20.90;77.90;;;;;;5073018;28;20115;-73
2021/07/01 00:20:24;;;;;;;7.07;3.72;;;20.90;77.70;;;;;;5074562;28;20047;-73
2021/07/01 00:22:53;;;;;;;7.32;3.80;;;20.90;77.80;;;;;;5074010;28;20063;-72
2021/07/01 00:25:20;;;;;;;6.63;3.80;;;20.90;78.10;;;;;;5074515;28;20032;-74
2021/07/01 00:27:46;;;;;;;6.82;3.92;;;20.90;78.30;;;;;;5073445;28;20086;-73
2021/07/01 00:30:13;;;;;;;7.22;4.18;;;20.90;78.10;;;;;;5074321;28;20044;-72
2021/07/01 00:32:39;;;;;;;7.22;4.10;;;20.90;78.00;;;;;;5074054;28;20020;-73
2021/07/01 00:35:06;;;;;;;8.93;4.30;;;20.90;77.70;;;;;;5071894;28;20021;-72
2021/07/01 00:37:32;;;;;;;6.40;3.97;;;20.80;77.90;;;;;;5054083;28;20025;-73
2021/07/01 00:39:59;;;;;;;6.60;3.72;;;20.80;77.50;;;;;;5054443;28;20024;-72
2021/07/01 00:42:25;;;;;;;7.07;4.13;;;20.80;77.90;;;;;;5063733;28;20074;-73
2021/07/01 00:44:50;;;;;;;7.38;4.22;;;20.90;78.30;;;;;;5074257;28;20025;-73
2021/07/01 00:47:16;;;;;;;7.43;4.10;;;20.90;78.00;;;;;;5073419;28;20028;-73
2021/07/01 00:49:43;;;;;;;8.00;4.25;;;20.80;78.00;;;;;;5056076;28;20501;-73
2021/07/01 00:52:09;;;;;;;7.00;3.65;;;20.80;78.10;;;;;;5073711;28;20466;-73
2021/07/01 00:54:35;;;;;;;7.45;3.67;;;20.80;78.50;;;;;;5073243;28;20023;-73
2021/07/01 00:57:01;;;;;;;6.90;3.97;;;20.80;78.70;;;;;;5055530;28;20119;-74
2021/07/01 00:59:27;;;;;;;7.13;3.85;;;20.80;78.50;;;;;;5073817;28;20028;-73
2021/07/01 01:01:52;;;;;;;7.10;3.80;;;20.80;78.60;;;;;;5073637;28;20442;-73
2021/07/01 01:04:18;;;;;;;7.35;4.43;;;20.80;78.80;;;;;;5055736;28;20107;-73
2021/07/01 01:06:44;;;;;;;7.07;3.90;;;20.80;78.50;;;;;;5055457;28;20021;-72
2021/07/01 01:09:10;;;;;;;8.30;3.95;;;20.80;78.50;;;;;;5073326;28;20024;-73
2021/07/01 01:11:36;;;;;;;7.47;3.65;;;20.70;79.00;;;;;;5055333;28;20027;-73
2021/07/01 01:14:02;;;;;;;7.30;3.40;;;20.60;78.60;;;;;;5073552;28;20024;-74
2021/07/01 01:16:27;;;;;;;9.07;3.95;;;20.80;78.70;;;;;;5055407;28;20031;-73
2021/07/01 01:18:53;;;;;;;6.60;3.72;;;20.70;78.80;;;;;;5072737;28;20036;-73
2021/07/01 01:21:24;;;;;;;8.05;4.20;;;20.70;79.40;;;;;;5073295;28;20028;-73
2021/07/01 01:23:50;;;;;;;;;;;20.70;79.00;;;;;;5073555;28;20111;-73
2021/07/01 01:26:15;;;;;;;7.60;3.60;;;20.70;78.50;;;;;;5072953;28;19991;-72
2021/07/01 01:28:41;;;;;;;6.80;4.18;;;20.70;79.20;;;;;;5069154;28;20025;-73
2021/07/01 01:31:07;;;;;;;9.30;3.70;;;20.70;79.00;;;;;;5073216;28;20518;-73
2021/07/01 01:33:33;;;;;;;6.82;3.90;;;20.70;79.30;;;;;;5072813;28;20028;-72
2021/07/01 01:35:59;;;;;;;6.70;3.80;;;20.70;79.50;;;;;;5072546;28;20432;-75
2021/07/01 01:38:24;;;;;;;7.07;3.92;;;20.70;79.00;;;;;;5054971;28;20043;-72
2021/07/01 01:40:50;;;;;;;8.32;3.95;;;20.70;78.80;;;;;;5051871;28;20060;-73
2021/07/01 01:43:18;;;;;;;6.53;3.75;;;20.70;79.30;;;;;;5035130;28;20032;-73
2021/07/01 01:45:44;;;;;;;7.47;3.83;;;20.70;78.50;;;;;;5042307;28;20670;-74
2021/07/01 01:48:10;;;;;;;6.22;3.40;;;20.70;79.30;;;;;;5054384;28;20033;-73
2021/07/01 01:50:37;;;;;;;6.75;3.85;;;20.70;79.10;;;;;;5054824;28;20512;-73
2021/07/01 01:53:03;;;;;;;8.38;3.60;;;20.70;79.10;;;;;;5072903;28;20028;-73
2021/07/01 01:55:29;;;;;;;7.18;3.45;;;20.70;78.90;;;;;;5054591;28;20069;-72
2021/07/01 01:57:55;;;;;;;7.82;4.20;;;20.60;79.50;;;;;;5054244;28;20036;-73
2021/07/01 02:00:23;;;;;;;7.68;4.05;;;20.70;79.30;;;;;;5054210;28;20040;-74
2021/07/01 02:02:49;;;;;;;7.00;3.53;;;20.70;79.60;;;;;;5072739;28;20032;-73
2021/07/01 02:05:16;;;;;;;9.15;3.80;;;20.70;79.20;;;;;;5070760;28;20028;-73
2021/07/01 02:07:42;;;;;;;7.35;3.67;;;20.70;79.30;;;;;;5072310;28;20032;-73
2021/07/01 02:10:14;;;;;;;7.00;3.58;;;20.70;79.30;;;;;;5071850;28;20386;-73
2021/07/01 02:12:40;;;;;;;8.30;3.83;;;20.70;79.30;;;;;;5072548;28;20536;-73
2021/07/01 02:15:11;;;;;;;7.03;4.10;;;20.60;79.00;;;;;;5072238;28;20024;-73
2021/07/01 02:17:37;;;;;;;6.78;3.55;;;20.60;79.40;;;;;;5054160;28;20028;-73
2021/07/01 02:20:05;;;;;;;6.80;3.58;;;20.60;79.40;;;;;;5072218;28;20031;-73
2021/07/01 02:22:31;;;;;;;6.88;3.83;;;20.60;78.80;;;;;;5067116;28;20025;-73
2021/07/01 02:24:56;;;;;;;6.18;3.40;;;20.60;79.50;;;;;;5072102;28;20440;-73
2021/07/01 02:27:22;;;;;;;6.72;3.85;;;20.60;79.10;;;;;;5053564;28;20452;-75
2021/07/01 02:29:47;;;;;;;6.38;3.75;;;20.60;78.90;;;;;;5072079;28;20086;-73
2021/07/01 02:32:13;;;;;;;7.63;3.90;;;20.60;79.50;;;;;;5072109;28;20078;-74
2021/07/01 02:34:41;;;;;;;6.85;4.03;;;20.60;79.50;;;;;;5054041;28;20066;-72
2021/07/01 02:37:11;;;;;;;6.38;3.55;;;20.60;79.30;;;;;;5053211;28;20119;-73
2021/07/01 02:39:38;;;;;;;7.35;4.00;;;20.60;79.40;;;;;;5053793;28;20082;-73
2021/07/01 02:42:04;;;;;;;8.02;4.05;;;20.60;79.50;;;;;;5060040;28;20049;-73
2021/07/01 02:44:30;;;;;;;8.10;3.65;;;20.60;78.50;;;;;;5059101;28;20056;-73
2021/07/01 02:46:58;;;;;;;8.70;3.50;;;20.50;79.40;;;;;;5052381;28;20072;-71
2021/07/01 02:49:24;;;;;;;8.52;3.72;;;20.60;79.60;;;;;;5061202;28;20027;-74
2021/07/01 02:51:52;;;;;;;8.05;3.80;;;20.60;79.30;;;;;;5071051;28;20489;-72
2021/07/01 02:54:18;;;;;;;7.13;3.78;;;20.60;78.90;;;;;;5052960;28;20395;-73
2021/07/01 02:56:44;;;;;;;10.52;4.35;;;20.50;79.50;;;;;;5071709;28;20058;-71
2021/07/01 02:59:11;;;;;;;8.23;3.90;;;20.60;79.30;;;;;;5071051;28;20099;-72
2021/07/01 03:01:37;;;;;;;9.82;4.07;;;20.60;79.60;;;;;;5071489;28;20032;-72
2021/07/01 03:04:03;;;;;;;7.80;3.92;;;20.60;79.40;;;;;;5053580;28;20047;-73
2021/07/01 03:06:29;;;;;;;8.30;4.18;;;20.60;79.30;;;;;;5053633;28;20051;-73
2021/07/01 03:08:57;;;;;;;7.22;3.75;;;20.60;78.90;;;;;;5052757;28;20021;-73
2021/07/01 03:11:23;;;;;;;6.90;3.90;;;20.50;79.00;;;;;;5065237;28;20552;-73
2021/07/01 03:13:49;;;;;;;9.65;4.13;;;20.50;79.00;;;;;;5051741;28;20029;-73
2021/07/01 03:16:16;;;;;;;9.68;4.07;;;20.50;78.80;;;;;;5059259;28;20024;-73
2021/07/01 03:18:42;;;;;;;6.85;4.05;;;20.50;79.20;;;;;;5071263;28;20435;-74
2021/07/01 03:21:08;;;;;;;7.93;3.90;;;20.50;78.60;;;;;;5071402;28;20028;-73
2021/07/01 03:23:36;;;;;;;7.63;3.72;;;20.50;78.80;;;;;;5070650;28;20082;-73
2021/07/01 03:26:02;;;;;;;8.13;4.30;;;20.50;79.10;;;;;;5071443;28;20402;-73
2021/07/01 03:28:28;;;;;;;7.82;3.72;;;20.50;79.20;;;;;;5070854;28;20443;-73
2021/07/01 03:30:53;;;;;;;6.53;4.05;;;20.50;79.10;;;;;;5071528;28;20051;-73
2021/07/01 03:33:19;;;;;;;7.32;4.10;;;20.50;78.90;;;;;;5071143;28;20058;-72
2021/07/01 03:35:44;;;;;;;8.10;3.67;;;20.50;78.70;;;;;;5070985;28;20042;-73
2021/07/01 03:38:10;;;;;;;7.40;4.05;;;20.50;79.20;;;;;;5070883;28;20085;-73
2021/07/01 03:40:35;;;;;;;9.07;4.15;;;20.50;79.00;;;;;;5071056;28;20078;-73
2021/07/01 03:43:02;;;;;;;8.18;3.95;;;20.50;78.70;;;;;;5051703;28;20025;-73
2021/07/01 03:45:27;;;;;;;8.13;4.45;;;20.50;79.20;;;;;;5047623;28;20025;-72
2021/07/01 03:47:53;;;;;;;6.38;3.70;;;20.50;78.80;;;;;;5070719;28;20105;-74
2021/07/01 03:50:18;;;;;;;8.48;3.92;;;20.40;78.60;;;;;;5053023;28;20035;-73
2021/07/01 03:52:44;;;;;;;7.43;4.10;;;20.50;78.90;;;;;;5053323;28;20025;-73
2021/07/01 03:55:10;;;;;;;7.95;4.18;;;20.50;79.10;;;;;;5053065;28;20051;-73
2021/07/01 03:57:36;;;;;;;7.38;4.00;;;20.40;78.40;;;;;;5052648;28;20110;-74
2021/07/01 04:00:03;;;;;;;11.98;4.70;;;20.40;78.30;;;;;;5071073;28;20056;-72
2021/07/01 04:02:28;;;;;;;8.02;4.15;;;20.40;78.50;;;;;;5070878;28;20024;-73
2021/07/01 04:04:54;;;;;;;9.50;4.05;;;20.50;78.70;;;;;;5070856;28;20409;-73
2021/07/01 04:07:19;;;;;;;9.73;3.60;;;20.40;78.70;;;;;;5070226;28;20482;-74
2021/07/01 04:09:45;;;;;;;11.38;4.22;;;20.50;78.60;;;;;;5070786;28;20092;-72
2021/07/01 04:12:11;;;;;;;10.35;4.60;;;20.40;78.70;;;;;;5052995;28;20493;-73
2021/07/01 04:14:36;;;;;;;11.15;3.88;;;20.40;78.90;;;;;;5070202;28;20021;-72
2021/07/01 04:17:02;;;;;;;7.80;4.10;;;20.40;79.30;;;;;;5050570;28;20025;-73
2021/07/01 04:19:27;;;;;;;8.77;3.85;;;20.40;79.50;;;;;;5070983;28;20111;-73
2021/07/01 04:21:53;;;;;;;8.15;3.90;;;20.40;78.50;;;;;;5076816;28;20596;-73
2021/07/01 04:24:18;;;;;;;9.55;3.90;;;20.40;79.20;;;;;;5057453;28;20405;-73
2021/07/01 04:26:44;;;;;;;8.10;3.95;;;20.40;79.00;;;;;;5070373;28;20034;-72
2021/07/01 04:29:09;;;;;;;6.53;3.45;;;20.40;78.90;;;;;;5071884;28;20078;-72
2021/07/01 04:31:35;;;;;;;8.63;3.80;;;20.40;78.90;;;;;;5073977;28;20020;-73
2021/07/01 04:34:02;;;;;;;7.63;3.88;;;20.40;78.70;;;;;;5073386;28;20028;-73
2021/07/01 04:36:28;;;;;;;7.38;3.35;;;20.40;78.50;;;;;;5074168;28;20477;-74
2021/07/01 04:38:53;;;;;;;7.38;3.67;;;20.40;78.90;;;;;;5056103;28;20052;-73
2021/07/01 04:41:20;;;;;;;7.40;3.70;;;20.40;78.80;;;;;;5056017;28;20032;-73
2021/07/01 04:43:47;;;;;;;6.03;3.47;;;20.40;78.80;;;;;;5056323;28;20025;-72
2021/07/01 04:46:13;;;;;;;8.77;3.60;;;20.40;79.00;;;;;;5073688;28;20031;-73
2021/07/01 04:48:41;;;;;;;11.00;3.72;;;20.40;79.00;;;;;;5071889;28;20024;-74
2021/07/01 04:51:06;;;;;;;7.38;3.88;;;20.40;78.50;;;;;;5073235;28;20616;-73
2021/07/01 04:53:32;;;;;;;10.05;4.40;;;20.40;78.00;;;;;;5060279;28;20029;-73
2021/07/01 04:55:57;;;;;;;9.95;4.05;;;20.50;78.10;;;;;;5060200;28;20061;-73
2021/07/01 04:58:23;;;;;;;10.43;4.00;;;20.40;78.10;;;;;;5064701;28;20049;-74
2021/07/01 05:00:48;;;;;;;9.98;3.80;;;20.50;78.00;;;;;;5046772;28;20055;-73
2021/07/01 05:03:14;;;;;;;8.88;3.78;;;20.40;78.40;;;;;;5048417;28;20043;-72
2021/07/01 05:05:40;;;;;;;8.18;3.72;;;20.40;77.90;;;;;;5066906;28;20493;-74
2021/07/01 05:08:06;;;;;;;17.92;4.07;;;20.40;75.30;;;;;;5066771;28;20064;-73
2021/07/01 05:10:32;;;;;;;10.25;3.92;;;20.30;76.90;;;;;;5066589;28;20078;-71
2021/07/01 05:12:58;;;;;;;19.23;3.83;;;20.40;76.80;;;;;;5066229;28;20028;-72
2021/07/01 05:15:24;;;;;;;6.53;2.95;;;20.40;77.00;;;;;;5049617;28;20030;-73
2021/07/01 05:17:49;;;;;;;8.20;3.05;;;20.50;76.80;;;;;;5062107;28;21386;-72
2021/07/01 05:20:15;;;;;;;10.88;3.30;;;20.50;77.50;;;;;;5065725;28;20082;-71
2021/07/01 05:22:41;;;;;;;8.73;3.25;;;20.50;77.90;;;;;;5066484;28;20826;-71
2021/07/01 05:25:07;;;;;;;11.15;3.60;;;20.50;77.50;;;;;;5051589;28;20035;-71
2021/07/01 05:27:33;;;;;;;11.70;3.30;;;20.60;78.00;;;;;;5045575;28;20048;-71
2021/07/01 05:29:58;;;;;;;8.32;2.88;;;20.50;78.00;;;;;;5030200;28;20028;-72
2021/07/01 05:32:24;;;;;;;9.93;3.42;;;20.50;78.10;;;;;;5047530;28;20394;-72
2021/07/01 05:34:49;;;;;;;9.82;3.13;;;20.50;78.30;;;;;;5047093;28;20028;-71
2021/07/01 05:37:15;;;;;;;6.75;2.80;;;20.50;78.10;;;;;;5060658;28;20103;-73
2021/07/01 05:39:41;;;;;;;12.68;3.30;;;20.50;78.10;;;;;;5048580;28;20028;-70
2021/07/01 05:42:07;;;;;;;9.60;2.92;;;20.50;78.20;;;;;;5049086;28;20028;-71
2021/07/01 05:44:32;;;;;;;6.60;2.88;;;20.50;78.10;;;;;;5066705;28;20021;-72
2021/07/01 05:46:58;;;;;;;6.47;3.05;;;20.50;78.00;;;;;;5065301;28;20064;-72
2021/07/01 05:49:23;;;;;;;5.53;2.78;;;20.50;78.00;;;;;;5065425;28;20115;-73
2021/07/01 05:51:52;;;;;;;7.68;2.72;;;20.50;78.00;;;;;;5065205;28;20056;-71
2021/07/01 05:56:52;;;;;;;4.28;2.35;;;20.50;78.00;;;;;;5066478;28;20020;-71
2021/07/01 05:59:20;;;;;;;7.15;2.90;;;20.50;77.90;;;;;;5066328;28;20504;-71
2021/07/01 06:01:45;;;;;;;6.05;2.58;;;20.50;77.70;;;;;;5066791;28;20039;-72
2021/07/01 06:04:11;;;;;;;7.10;2.50;;;20.50;77.90;;;;;;5066220;28;20482;-71
2021/07/01 06:06:40;;;;;;;8.27;2.40;;;20.50;77.80;;;;;;5048234;28;20051;-71
2021/07/01 06:09:06;;;;;;;4.53;2.40;;;20.50;77.90;;;;;;5065129;28;20024;-71
2021/07/01 06:11:36;;;;;;;7.35;2.70;;;20.50;77.80;;;;;;5048438;28;20418;-71
2021/07/01 06:14:05;;;;;;;5.97;2.55;;;20.50;77.80;;;;;;5048124;28;20033;-73
2021/07/01 06:16:33;;;;;;;5.50;2.67;;;20.50;77.90;;;;;;5066331;28;20031;-72
2021/07/01 06:19:01;;;;;;;6.57;2.40;;;20.50;77.90;;;;;;5065792;28;20047;-72
2021/07/01 06:21:28;;;;;;;5.93;2.80;;;20.50;78.20;;;;;;5066036;28;20017;-71
2021/07/01 06:23:54;;;;;;;5.88;2.50;;;20.50;77.50;;;;;;5066226;28;20016;-71
2021/07/01 06:26:26;;;;;;;4.57;2.35;;;20.50;77.50;;;;;;5047683;28;20032;-74
2021/07/01 06:28:52;;;;;;;4.70;2.25;;;20.50;77.50;;;;;;5065919;28;20032;-74
2021/07/01 06:31:18;;;;;;;5.68;2.35;;;20.50;77.40;;;;;;5047947;28;20024;-72
2021/07/01 06:33:45;;;;;;;8.73;2.75;;;20.50;77.50;;;;;;5048261;28;20017;-73
2021/07/01 06:36:12;;;;;;;6.20;2.05;;;20.50;77.40;;;;;;5065713;28;20023;-71
2021/07/01 06:38:42;;;;;;;4.95;2.50;;;20.50;77.30;;;;;;5065839;28;20039;-71
2021/07/01 06:41:11;;;;;;;5.75;2.60;;;20.50;77.30;;;;;;5047966;28;20035;-72
2021/07/01 06:43:37;;;;;;;4.38;2.20;;;20.50;77.30;;;;;;5065486;28;20024;-72
2021/07/01 06:46:04;;;;;;;4.53;2.40;;;20.50;77.20;;;;;;5047753;28;20055;-71
2021/07/01 06:48:30;;;;;;;4.47;2.30;;;20.50;77.20;;;;;;5047317;28;20028;-74
2021/07/01 06:51:00;;;;;;;19.77;3.15;;;20.50;77.20;;;;;;5047319;28;20451;-72
2021/07/01 06:53:27;;;;;;;7.13;2.30;;;20.50;77.10;;;;;;5065676;28;20039;-72
2021/07/01 06:55:53;;;;;;;8.77;2.47;;;20.50;77.20;;;;;;5065534;28;20401;-72
2021/07/01 06:58:20;;;;;;;6.82;2.40;;;20.50;76.90;;;;;;5065217;28;20033;-73
2021/07/01 07:00:46;;;;;;;6.28;2.20;;;20.50;77.20;;;;;;5065927;28;20032;-77
2021/07/01 07:03:17;;;;;;;6.25;2.50;;;20.50;77.20;;;;;;5065514;28;20037;-74
2021/07/01 07:05:45;;;;;;;6.75;2.78;;;20.50;76.80;;;;;;5047313;28;20117;-70
2021/07/01 07:08:13;;;;;;;9.88;2.53;;;20.50;77.30;;;;;;5043931;28;20101;-70
2021/07/01 07:10:41;;;;;;;8.60;2.50;;;20.50;77.30;;;;;;5065212;28;20069;-71
2021/07/01 07:13:06;;;;;;;5.53;2.20;;;20.50;77.00;;;;;;5063698;28;20555;-69
2021/07/01 07:15:33;;;;;;;5.20;1.92;;;20.60;76.90;;;;;;5064836;28;20032;-69
2021/07/01 07:18:22;;;;;;;6.55;2.65;;;20.60;76.80;;;;;;5047204;28;20379;-71
2021/07/01 07:21:03;;;;;;;5.32;2.40;;;20.50;76.70;;;;;;5047113;28;20033;-72
2021/07/01 07:23:28;;;;;;;;;;;20.60;76.60;;;;;;5047369;28;20111;-72
2021/07/01 07:25:55;;;;;;;5.32;2.50;;;20.50;76.60;;;;;;5064335;28;20165;-70
2021/07/01 07:28:23;;;;;;;5.32;2.17;;;20.50;76.50;;;;;;5064671;28;20493;-74
2021/07/01 07:30:52;;;;;;;6.47;2.38;;;20.60;76.50;;;;;;5064531;28;20033;-74
2021/07/01 07:33:21;;;;;;;5.93;2.20;;;20.50;76.60;;;;;;5065009;28;20056;-71
2021/07/01 07:35:47;;;;;;;3.53;1.90;;;20.50;76.40;;;;;;5064726;28;20056;-72
2021/07/01 07:38:13;;;;;;;5.13;2.15;;;20.50;76.30;;;;;;5046546;28;20778;-75
2021/07/01 07:40:39;;;;;;;5.72;2.20;;;20.60;76.30;;;;;;5046553;28;20116;-70
2021/07/01 07:43:06;;;;;;;3.97;2.17;;;20.50;76.10;;;;;;5046708;28;20119;-70
2021/07/01 07:45:32;;;;;;;4.50;2.10;;;20.60;76.40;;;;;;5064405;28;20032;-71
2021/07/01 07:47:58;;;;;;;4.13;2.00;;;20.60;76.30;;;;;;5064320;28;20043;-73
2021/07/01 07:50:23;;;;;;;7.18;2.22;;;20.60;76.40;;;;;;5046861;28;20223;-71
2021/07/01 07:52:50;;;;;;;6.97;2.10;;;20.60;76.40;;;;;;5064657;28;20021;-71
2021/07/01 07:55:20;;;;;;;5.07;2.20;;;20.50;76.40;;;;;;5064851;28;20503;-70
2021/07/01 07:57:50;;;;;;;4.05;2.13;;;20.50;76.60;;;;;;5046572;28;20477;-72
2021/07/01 08:00:17;;;;;;;3.75;1.95;;;20.60;76.40;;;;;;5065159;28;20559;-71
2021/07/01 08:02:47;;;;;;;4.40;2.10;;;20.50;76.60;;;;;;5047351;28;20039;-72
2021/07/01 08:05:18;;;;;;;5.93;1.90;;;20.50;76.70;;;;;;5067031;28;20046;-71
2021/07/01 08:07:44;;;;;;;5.03;2.20;;;20.60;77.00;;;;;;5048576;28;20056;-71
2021/07/01 08:10:13;;;;;;;5.15;2.03;;;20.50;77.00;;;;;;5050476;28;20028;-72
2021/07/01 08:12:44;;;;;;;3.22;1.58;;;20.50;77.00;;;;;;5067815;28;20035;-71
2021/07/01 08:15:14;;;;;;;4.68;1.95;;;20.50;77.00;;;;;;5068378;28;20486;-72
2021/07/01 08:17:42;;;;;;;4.78;1.98;;;20.50;77.10;;;;;;5050272;28;20033;-72
2021/07/01 08:20:10;;;;;;;4.07;1.60;;;20.50;77.00;;;;;;5050203;28;20028;-71
2021/07/01 08:22:37;;;;;;;5.47;2.00;;;20.50;77.00;;;;;;5068272;28;20021;-71
2021/07/01 08:25:03;;;;;;;4.22;1.85;;;20.50;76.80;;;;;;5068189;28;20421;-73
2021/07/01 08:27:29;;;;;;;4.45;1.70;;;20.50;76.60;;;;;;5069947;28;20093;-71
2021/07/01 08:29:56;;;;;;;6.13;2.35;;;20.50;76.80;;;;;;5080225;28;20024;-71
2021/07/01 08:32:22;;;;;;;5.15;1.92;;;20.50;77.30;;;;;;5088929;28;20073;-72
2021/07/01 08:34:48;;;;;;;3.95;1.75;;;20.50;77.30;;;;;;5088492;28;20123;-71
2021/07/01 08:37:21;;;;;;;3.92;1.63;;;20.50;77.20;;;;;;5069893;28;20572;-71
2021/07/01 08:39:48;;;;;;;2.95;1.58;;;20.50;77.00;;;;;;5074457;28;20572;-72
2021/07/01 08:42:16;;;;;;;3.95;1.80;;;20.50;76.80;;;;;;5067760;28;20024;-71
2021/07/01 08:44:44;;;;;;;5.13;1.60;;;20.50;77.00;;;;;;5067670;28;20398;-71
2021/07/01 08:47:20;;;;;;;5.13;1.88;;;20.50;77.10;;;;;;5070874;28;20024;-72
2021/07/01 08:49:57;;;;;;;4.97;1.67;;;20.50;76.80;;;;;;5071723;28;20024;-72
2021/07/01 08:52:29;;;;;;;3.50;1.75;;;20.50;77.10;;;;;;5072711;28;20396;-72
2021/07/01 08:55:00;;;;;;;3.63;1.40;;;20.50;76.90;;;;;;5056296;28;20025;-73
2021/07/01 08:57:29;;;;;;;3.97;1.70;;;20.50;77.10;;;;;;5073751;28;20588;-72
2021/07/01 09:00:07;;;;;;;4.75;1.65;;;20.50;77.20;;;;;;5056134;28;20060;-71
2021/07/01 09:02:41;;;;;;;5.80;1.70;;;20.50;77.10;;;;;;5074124;28;20398;-74
2021/07/01 09:05:10;;;;;;;11.02;2.28;;;20.50;77.00;;;;;;5074020;28;20474;-71
2021/07/01 09:07:37;;;;;;;8.98;1.98;;;20.50;77.10;;;;;;5072196;28;20025;-73
2021/07/01 09:10:07;;;;;;;9.60;2.40;;;20.50;77.00;;;;;;5049941;22;20067;-67
2021/07/01 09:12:35;;;;;;;18.35;2.63;;;20.50;76.80;;;;;;5012563;28;20465;-68
2021/07/01 09:15:07;;;;;;;11.57;2.33;;;20.50;76.80;;;;;;5033213;28;20024;-67
2021/07/01 09:17:35;;;;;;;14.30;2.42;;;20.50;77.00;;;;;;5015764;28;20111;-67
2021/07/01 09:20:05;;;;;;;11.00;2.30;;;20.50;76.60;;;;;;5033566;28;20034;-67
2021/07/01 09:22:31;;;;;;;17.50;2.97;;;20.50;76.60;;;;;;5033701;28;20175;-69
2021/07/01 09:24:57;;;;;;;43.00;5.95;;;20.50;76.30;;;;;;5010351;28;20116;-68
2021/07/01 09:27:25;;;;;;;43.05;7.05;;;20.50;76.40;;;;;;5014306;28;20084;-67
2021/07/01 09:29:51;;;;;;;45.25;6.85;;;20.50;76.30;;;;;;5022619;28;20112;-68
2021/07/01 09:32:18;;;;;;;50.20;6.32;;;20.50;76.30;;;;;;5033698;28;20140;-69
2021/07/01 09:34:46;;;;;;;40.20;5.60;;;20.60;76.50;;;;;;5031305;28;20025;-68
2021/07/01 09:37:12;;;;;;;34.80;4.68;;;20.50;76.50;;;;;;5012088;28;20074;-68
2021/07/01 09:39:38;;;;;;;23.75;4.68;;;20.50;76.50;;;;;;5014706;28;20395;-68
2021/07/01 09:42:05;;;;;;;24.15;3.83;;;20.50;76.70;;;;;;5015434;28;20394;-67
2021/07/01 09:44:33;;;;;;;22.10;3.03;;;20.50;76.50;;;;;;5033389;28;20029;-68
2021/07/01 09:47:04;;;;;;;19.00;3.20;;;20.50;76.40;;;;;;5015097;28;20022;-68
2021/07/01 09:49:31;;;;;;;21.95;3.40;;;20.50;76.60;;;;;;5032721;28;20032;-68
2021/07/01 09:52:03;;;;;;;27.27;3.95;;;20.50;76.60;;;;;;5028619;28;20030;-68
2021/07/01 09:54:31;;;;;;;23.35;3.60;;;20.50;76.50;;;;;;5011976;28;20048;-67
2021/07/01 09:57:00;;;;;;;27.40;4.38;;;20.50;76.70;;;;;;5016347;28;20039;-67
2021/07/01 09:59:32;;;;;;;23.00;3.45;;;20.50;76.80;;;;;;5035619;28;20116;-67
2021/07/01 10:02:13;;;;;;;21.60;4.00;;;20.50;76.90;;;;;;5017240;28;20025;-66
2021/07/01 10:04:44;;;;;;;27.38;3.90;;;20.50;77.40;;;;;;5017491;28;20028;-67
2021/07/01 10:07:11;;;;;;;28.50;3.33;;;20.50;76.90;;;;;;5035994;28;20033;-67
2021/07/01 10:09:37;;;;;;;21.83;3.70;;;20.50;76.90;;;;;;5035973;28;20032;-66
2021/07/01 10:12:17;;;;;;;23.70;4.05;;;20.50;76.90;;;;;;5001902;28;20026;-67
2021/07/01 10:14:43;;;;;;;17.40;3.70;;;20.50;76.80;;;;;;4998008;28;20120;-68
2021/07/01 10:17:19;;;;;;;45.45;5.22;;;20.50;76.50;;;;;;5011346;28;20460;-66
2021/07/01 10:19:46;;;;;;;23.25;3.80;;;20.50;76.40;;;;;;5027112;28;20052;-67
2021/07/01 10:22:18;;;;;;;26.67;3.58;;;20.50;76.50;;;;;;5014277;28;20040;-67
2021/07/01 10:24:47;;;;;;;;;;;20.50;76.60;;;;;;5015281;28;20053;-67
2021/07/01 10:27:29;;;;;;;18.20;2.90;;;20.50;76.70;;;;;;5013742;28;19912;-68
2021/07/01 10:30:00;;;;;;;32.65;3.88;;;20.50;76.50;;;;;;5010944;28;20132;-68
2021/07/01 10:32:35;;;;;;;20.73;2.78;;;20.50;76.10;;;;;;5023074;28;20022;-68
2021/07/01 10:35:01;;;;;;;15.77;2.30;;;20.50;76.20;;;;;;5026427;28;20109;-68
2021/07/01 10:37:27;;;;;;;17.30;2.30;;;20.50;76.30;;;;;;5032859;28;20072;-69
2021/07/01 10:39:53;;;;;;;14.50;2.03;;;20.50;76.50;;;;;;5029042;28;20057;-67
2021/07/01 10:42:19;;;;;;;14.32;1.63;;;20.50;76.50;;;;;;5017945;28;20018;-67
2021/07/01 10:44:46;;;;;;;13.55;2.03;;;20.50;77.40;;;;;;5018060;28;20037;-67
2021/07/01 10:47:41;;;;;;;12.43;2.30;;;20.50;77.40;;;;;;5007833;28;20400;-66
2021/07/01 10:50:24;;;;;;;7.40;1.67;;;20.50;77.40;;;;;;5021409;28;20037;-67
2021/07/01 10:52:49;;;;;;;10.45;1.90;;;20.50;77.30;;;;;;5005150;28;20026;-66
2021/07/01 10:55:16;;;;;;;10.25;1.88;;;20.50;77.10;;;;;;5012207;28;20541;-66
2021/07/01 10:57:56;;;;;;;12.10;1.60;;;20.50;77.10;;;;;;5010851;28;20044;-67
2021/07/01 11:00:39;;;;;;;12.30;2.38;;;20.50;77.20;;;;;;4998509;28;20038;-67
2021/07/01 11:03:05;;;;;;;8.85;1.55;;;20.50;77.30;;;;;;5012098;28;20120;-66
2021/07/01 11:05:35;;;;;;;15.52;1.60;;;20.60;77.20;;;;;;5005224;28;20061;-67
2021/07/01 11:08:01;;;;;;;6.93;1.50;;;20.50;77.00;;;;;;5006469;28;20025;-68
2021/07/01 11:10:38;;;;;;;13.43;1.60;;;20.60;76.80;;;;;;5016955;28;20022;-68
2021/07/01 11:13:11;;;;;;;7.45;1.92;;;20.60;76.70;;;;;;4997726;28;20049;-68
2021/07/01 11:16:03;;;;;;;11.63;1.60;;;20.60;76.40;;;;;;5005593;28;20091;-69
2021/07/01 11:18:33;;;;;;;9.63;1.58;;;20.60;76.20;;;;;;5000582;28;20098;-67
2021/07/01 11:21:11;;;;;;;4.88;1.30;;;20.60;76.50;;;;;;5006737;28;20026;-68
2021/07/01 11:23:38;;;;;;;7.25;1.35;;;20.60;76.60;;;;;;5031552;28;20033;-66
2021/07/01 11:26:31;;;;;;;4.95;0.75;;;20.60;76.70;;;;;;5004159;28;20108;-69
2021/07/01 11:28:59;;;;;;;3.85;0.90;;;20.60;76.70;;;;;;5027688;28;20025;-69
2021/07/01 11:31:43;;;;;;;6.57;1.02;;;20.60;76.60;;;;;;5010485;28;20141;-69
2021/07/01 11:34:10;;;;;;;4.28;0.98;;;20.60;76.90;;;;;;4997486;28;20492;-68
2021/07/01 11:36:37;;;;;;;4.50;1.00;;;20.60;77.40;;;;;;5010221;28;20120;-68
2021/07/01 11:39:14;;;;;;;3.53;0.90;;;20.60;77.10;;;;;;5013283;28;20030;-68
2021/07/01 11:41:43;;;;;;;7.00;0.93;;;20.50;76.80;;;;;;5015883;28;20108;-67
2021/07/01 11:44:11;;;;;;;6.55;0.80;;;20.50;76.80;;;;;;4997709;28;20030;-68
2021/07/01 11:46:38;;;;;;;1.30;0.70;;;20.60;76.80;;;;;;5015706;28;20017;-68
2021/07/01 11:49:06;;;;;;;2.53;0.63;;;20.50;76.70;;;;;;5015374;28;20101;-69
2021/07/01 11:51:33;;;;;;;2.03;0.63;;;20.60;76.80;;;;;;4998002;28;20033;-69
2021/07/01 11:53:59;;;;;;;2.85;0.85;;;20.50;76.60;;;;;;5015674;28;20033;-68
2021/07/01 11:56:26;;;;;;;3.35;0.70;;;20.50;76.50;;;;;;5015561;28;20026;-67
2021/07/01 11:58:51;;;;;;;1.15;0.40;;;20.50;76.40;;;;;;4997674;28;20022;-68
2021/07/01 12:01:18;;;;;;;1.75;0.50;;;20.60;76.60;;;;;;5015486;28;20109;-68
2021/07/01 12:03:51;;;;;;;2.05;0.55;;;20.50;76.40;;;;;;5015258;28;20045;-67
2021/07/01 12:06:43;;;;;;;1.95;0.50;;;20.50;76.40;;;;;;4997724;28;20041;-67
2021/07/01 12:09:12;;;;;;;2.13;0.50;;;20.50;76.40;;;;;;5007882;28;20056;-68
2021/07/01 12:12:11;;;;;;;1.02;0.50;;;20.60;76.50;;;;;;4998048;28;20088;-68
2021/07/01 12:14:39;;;;;;;1.63;0.50;;;20.60;76.40;;;;;;4982653;28;20121;-69
2021/07/01 12:17:05;;;;;;;1.08;0.50;;;20.60;76.40;;;;;;4997270;28;20030;-69
2021/07/01 12:19:46;;;;;;;0.77;0.45;;;20.50;76.40;;;;;;4997213;28;20403;-63
2021/07/01 12:22:30;;;;;;;;;;;20.60;76.40;;;;;;5015433;28;20028;-68
2021/07/01 12:24:55;;;;;;;2.08;0.50;;;20.60;76.50;;;;;;4997452;28;19987;-68
2021/07/01 12:27:29;;;;;;;2.58;0.45;;;20.50;76.40;;;;;;4997000;28;20515;-68
2021/07/01 12:29:55;;;;;;;0.85;0.50;;;20.60;76.40;;;;;;5014982;28;20018;-67
2021/07/01 12:32:25;;;;;;;0.70;0.32;;;20.50;76.50;;;;;;5014966;28;20029;-68
2021/07/01 12:34:51;;;;;;;0.68;0.40;;;20.60;76.50;;;;;;4997273;28;20045;-68
2021/07/01 12:37:16;;;;;;;1.40;0.40;;;20.50;76.50;;;;;;5014466;28;20058;-68
2021/07/01 12:39:47;;;;;;;0.98;0.40;;;20.50;76.50;;;;;;5014788;28;20068;-68
2021/07/01 12:42:13;;;;;;;2.27;0.40;;;20.50;76.50;;;;;;4997254;28;20030;-67
2021/07/01 12:44:41;;;;;;;0.35;0.35;;;20.50;76.70;;;;;;5014203;28;20024;-67
2021/07/01 12:47:08;;;;;;;1.13;0.50;;;20.50;76.40;;;;;;5014197;28;20496;-68
2021/07/01 12:49:37;;;;;;;1.75;0.43;;;20.50;76.50;;;;;;4996097;28;20030;-67
2021/07/01 12:52:07;;;;;;;1.05;0.40;;;20.50;76.50;;;;;;4996958;28;20113;-65